createdAt,value
2018-03-24T00:03:31.297Z,44.80
2018-03-24T00:08:32.671Z,44.13
2018-03-24T00:13:34.116Z,41.77
2018-03-24T00:18:35.487Z,41.57
2018-03-24T00:23:37.029Z,40.70
2018-03-24T00:28:38.462Z,43.07
2018-03-24T00:33:39.858Z,45.20
2018-03-24T00:38:41.348Z,44.07
2018-03-24T00:43:42.739Z,39.00
2018-03-24T00:48:44.151Z,40.73
2018-03-24T00:53:45.500Z,40.37
2018-03-24T00:58:46.897Z,44.53
2018-03-24T01:03:48.218Z,42.80
2018-03-24T01:08:49.643Z,42.23
2018-03-24T01:13:51.757Z,43.70
2018-03-24T01:18:53.859Z,43.40
2018-03-24T01:23:55.954Z,41.90
2018-03-24T01:28:57.474Z,42.33
2018-03-24T01:33:58.913Z,47.30
2018-03-24T01:39:00.285Z,45.20
2018-03-24T01:44:01.738Z,44.17
2018-03-24T01:49:03.825Z,44.80
2018-03-24T01:54:05.201Z,43.60
2018-03-24T01:59:06.639Z,45.10
2018-03-24T02:04:08.900Z,44.13
2018-03-24T02:09:10.510Z,42.60
2018-03-24T02:14:12.087Z,41.73
2018-03-24T02:19:13.576Z,43.80
2018-03-24T02:24:15.015Z,46.97
2018-03-24T02:29:17.076Z,44.90
2018-03-24T02:34:18.429Z,43.37
2018-03-24T02:39:19.790Z,43.57
2018-03-24T02:44:21.161Z,44.50
2018-03-24T02:49:22.514Z,41.37
2018-03-24T02:54:23.883Z,45.63
2018-03-24T02:59:26.284Z,46.40
2018-03-24T03:04:27.732Z,44.87
2018-03-24T03:09:29.168Z,45.30
2018-03-24T03:14:30.557Z,41.20
2018-03-24T03:19:31.929Z,43.60
2018-03-24T03:24:33.295Z,43.27
2018-03-24T03:29:34.643Z,41.30
2018-03-24T03:34:36.060Z,39.03
2018-03-24T03:39:37.626Z,39.30
2018-03-24T03:44:39.111Z,40.00
2018-03-24T03:49:40.646Z,39.30
2018-03-24T03:54:42.053Z,38.90
2018-03-24T03:59:43.473Z,40.47
2018-03-24T04:04:44.881Z,39.83
2018-03-24T04:09:46.236Z,40.47
2018-03-24T04:14:47.592Z,41.90
2018-03-24T04:19:48.982Z,43.47
2018-03-24T04:24:50.444Z,43.37
2018-03-24T04:29:52.586Z,41.53
2018-03-24T04:34:53.946Z,44.47
2018-03-24T04:39:55.345Z,42.97
2018-03-24T04:44:56.696Z,41.70
2018-03-24T04:49:58.101Z,42.47
2018-03-24T04:54:59.467Z,43.20
2018-03-24T05:00:00.816Z,40.57
2018-03-24T05:05:02.199Z,40.37
2018-03-24T05:10:04.331Z,37.17
2018-03-24T05:15:05.772Z,39.30
2018-03-24T05:20:07.203Z,38.23
2018-03-24T05:25:09.358Z,36.50
2018-03-24T05:30:10.804Z,39.07
2018-03-24T05:35:12.157Z,39.53
2018-03-24T05:40:15.156Z,39.10
2018-03-24T05:45:16.651Z,37.73
2018-03-24T05:50:17.999Z,37.80
2018-03-24T05:55:20.108Z,35.87
2018-03-24T06:00:22.236Z,35.23
2018-03-24T06:05:23.594Z,34.20
2018-03-24T06:10:24.926Z,35.70
2018-03-24T06:15:26.319Z,36.17
2018-03-24T06:20:27.643Z,35.43
2018-03-24T06:25:29.052Z,34.00
2018-03-24T06:30:31.419Z,34.60
2018-03-24T06:35:32.817Z,35.53
2018-03-24T06:40:34.202Z,33.23
2018-03-24T06:45:35.619Z,36.60
2018-03-24T06:50:37.031Z,37.33
2018-03-24T06:55:38.452Z,36.20
2018-03-24T07:00:39.890Z,35.63
2018-03-24T07:05:41.271Z,35.30
2018-03-24T07:10:42.662Z,36.03
2018-03-24T07:15:44.058Z,33.83
2018-03-24T07:20:45.387Z,34.37
2018-03-24T07:25:47.515Z,33.40
2018-03-24T07:30:48.852Z,32.30
2018-03-24T07:35:50.997Z,33.47
2018-03-24T07:40:53.123Z,33.03
2018-03-24T07:45:54.522Z,31.30
2018-03-24T07:50:55.882Z,31.90
2018-03-24T07:55:57.988Z,34.30
2018-03-24T08:01:00.091Z,33.10
2018-03-24T08:06:01.528Z,35.40
2018-03-24T08:11:02.918Z,33.97
2018-03-24T08:16:04.285Z,36.07
2018-03-24T08:21:05.681Z,34.10
2018-03-24T08:26:07.884Z,34.70
2018-03-24T08:31:10.085Z,33.10
2018-03-24T08:36:11.476Z,33.97
2018-03-24T08:41:12.865Z,34.90
2018-03-24T08:46:14.207Z,33.77
2018-03-24T08:51:15.566Z,31.80
2018-03-24T08:56:16.911Z,34.07
2018-03-24T09:01:18.931Z,34.10
2018-03-24T09:06:20.310Z,36.40
2018-03-24T09:11:21.676Z,35.43
2018-03-24T09:16:27.160Z,33.63
2018-03-24T09:21:28.779Z,35.57
2018-03-24T09:26:30.209Z,33.90
2018-03-24T09:31:31.580Z,35.73
2018-03-24T09:36:32.947Z,34.83
2018-03-24T09:41:34.345Z,35.67
2018-03-24T09:46:35.964Z,36.20
2018-03-24T09:51:37.432Z,34.00
2018-03-24T09:56:38.818Z,35.10
2018-03-24T10:01:40.261Z,32.13
2018-03-24T10:06:41.668Z,34.00
2018-03-24T10:11:43.086Z,32.80
2018-03-24T10:16:44.537Z,34.07
2018-03-24T10:27:24.431Z,30.37
2018-03-24T10:32:26.568Z,32.70
2018-03-24T10:37:28.656Z,32.00
2018-03-24T10:42:30.840Z,32.60
2018-03-24T10:47:34.696Z,30.80
2018-03-24T10:52:36.073Z,29.63
2018-03-24T10:57:37.387Z,32.43
2018-03-24T11:02:39.614Z,28.63
2018-03-24T11:07:41.562Z,28.47
2018-03-24T11:12:42.887Z,25.23
2018-03-24T11:17:44.988Z,23.90
2018-03-24T11:22:46.344Z,25.20
2018-03-24T11:27:47.723Z,23.90
2018-03-24T11:32:49.091Z,23.03
2018-03-24T11:37:50.449Z,18.70
2018-03-24T11:42:51.826Z,19.73
2018-03-24T11:47:53.207Z,20.50
2018-03-24T11:52:54.580Z,19.47
2018-03-24T11:57:55.888Z,19.67
2018-03-24T12:02:57.202Z,18.53
2018-03-24T12:07:58.584Z,18.90
2018-03-24T12:12:59.926Z,18.63
2018-03-24T12:18:01.349Z,18.10
2018-03-24T12:23:02.774Z,12.33
2018-03-24T12:28:04.207Z,12.60
2018-03-24T12:33:05.603Z,13.33
2018-03-24T12:38:06.942Z,13.30
2018-03-24T12:43:09.154Z,14.77
2018-03-24T12:48:10.529Z,14.40
2018-03-24T12:53:11.891Z,13.80
2018-03-24T12:58:13.312Z,14.20
2018-03-24T13:03:15.556Z,14.53
2018-03-24T13:08:16.892Z,14.50
2018-03-24T13:13:18.249Z,14.57
2018-03-24T13:18:20.337Z,13.40
2018-03-24T13:23:21.675Z,15.30
2018-03-24T13:28:23.213Z,15.37
2018-03-24T13:33:24.542Z,14.10
2018-03-24T13:38:25.875Z,15.33
2018-03-24T13:43:28.057Z,14.17
2018-03-24T13:48:29.535Z,14.97
2018-03-24T13:53:30.900Z,15.50
2018-03-24T13:58:33.067Z,16.90
2018-03-24T14:03:34.413Z,16.07
2018-03-24T14:08:36.706Z,16.20
2018-03-24T14:13:38.033Z,14.33
2018-03-24T14:18:39.399Z,14.70
2018-03-24T14:23:41.469Z,14.80
2018-03-24T14:28:42.827Z,15.80
2018-03-24T14:33:44.151Z,14.70
2018-03-24T14:38:46.332Z,15.07
2018-03-24T14:43:47.661Z,12.73
2018-03-24T14:48:48.994Z,12.10
2018-03-24T14:53:50.319Z,13.30
2018-03-24T14:58:51.645Z,12.97
2018-03-24T15:03:54.457Z,12.73
2018-03-24T15:08:55.898Z,15.67
2018-03-24T15:13:58.516Z,13.40
2018-03-24T15:18:59.879Z,13.10
2018-03-24T15:24:01.305Z,14.43
2018-03-24T15:29:21.195Z,14.40
2018-03-24T15:34:41.854Z,13.40
2018-03-24T15:39:43.230Z,12.97
2018-03-24T15:44:44.600Z,13.63
2018-03-24T15:49:45.914Z,12.60
2018-03-24T15:54:47.337Z,13.60
2018-03-24T15:59:48.730Z,16.73
2018-03-24T16:04:50.079Z,16.30
2018-03-24T16:09:52.155Z,18.40
2018-03-24T16:14:53.500Z,15.10
2018-03-24T16:19:54.835Z,14.90
2018-03-24T16:24:56.214Z,14.57
2018-03-24T16:29:57.535Z,13.57
2018-03-24T16:34:59.695Z,14.00
2018-03-24T16:40:01.104Z,16.00
2018-03-24T16:45:02.535Z,13.83
2018-03-24T16:50:03.922Z,14.00
2018-03-24T16:55:06.031Z,15.60
2018-03-24T17:00:08.178Z,15.10
2018-03-24T17:05:10.213Z,14.00
2018-03-24T17:10:11.549Z,13.43
2018-03-24T17:15:13.103Z,13.93
2018-03-24T17:20:14.452Z,15.00
2018-03-24T17:25:15.819Z,14.23
2018-03-24T17:30:17.148Z,14.93
2018-03-24T17:35:19.067Z,15.93
2018-03-24T17:40:20.452Z,15.10
2018-03-24T17:45:21.794Z,20.67
2018-03-24T17:50:23.909Z,13.57
2018-03-24T17:55:25.242Z,16.57
2018-03-24T18:00:27.456Z,13.20
2018-03-24T18:05:28.843Z,13.53
2018-03-24T18:10:30.195Z,14.10
2018-03-24T18:15:31.632Z,13.13
2018-03-24T18:20:33.026Z,14.53
2018-03-24T18:25:34.523Z,15.37
2018-03-24T18:30:35.866Z,15.70
2018-03-24T18:35:37.219Z,15.30
2018-03-24T18:40:38.652Z,16.97
2018-03-24T18:45:39.990Z,19.43
2018-03-24T18:50:41.320Z,16.93
2018-03-24T18:55:42.632Z,33.77
2018-03-24T19:00:50.727Z,31.10
2018-03-24T19:05:52.881Z,23.97
2018-03-24T19:10:54.259Z,14.43
2018-03-24T19:15:55.672Z,14.90
2018-03-24T19:20:56.994Z,15.20
2018-03-24T19:25:58.330Z,14.50
2018-03-24T19:30:59.660Z,15.90
2018-03-24T19:36:01.406Z,15.67
2018-03-24T19:41:02.863Z,16.80
2018-03-24T19:46:04.273Z,15.10
2018-03-24T19:51:06.335Z,15.90
2018-03-24T19:56:07.670Z,27.57
2018-03-24T20:01:09.745Z,16.43
2018-03-24T20:06:11.170Z,16.03
2018-03-24T20:11:12.500Z,15.57
2018-03-24T20:16:13.931Z,17.23
2018-03-24T20:21:16.466Z,16.20
2018-03-24T20:26:18.625Z,16.20
2018-03-24T20:31:19.958Z,17.03
2018-03-24T20:36:21.267Z,16.03
2018-03-24T20:41:23.526Z,17.20
2018-03-24T20:46:25.122Z,17.70
2018-03-24T20:51:26.480Z,16.63
2018-03-24T20:56:27.816Z,18.17
2018-03-24T21:01:29.220Z,19.50
2018-03-24T21:06:30.636Z,20.57
2018-03-24T21:11:32.076Z,20.37
2018-03-24T21:16:33.524Z,20.83
2018-03-24T21:21:34.898Z,19.57
2018-03-24T21:26:37.101Z,22.60
2018-03-24T21:31:39.214Z,25.57
2018-03-24T21:36:41.323Z,19.80
2018-03-24T21:41:43.477Z,30.20
2018-03-24T21:46:44.825Z,24.70
2018-03-24T21:51:46.168Z,18.33
2018-03-24T21:56:47.506Z,16.80
2018-03-24T22:01:49.601Z,18.13
2018-03-24T22:06:50.967Z,16.53
2018-03-24T22:11:52.296Z,17.00
2018-03-24T22:16:54.384Z,17.07
2018-03-24T22:21:55.745Z,17.20
2018-03-24T22:26:57.141Z,16.17
2018-03-24T22:31:58.454Z,17.53
2018-03-24T22:36:59.835Z,15.93
2018-03-24T22:42:03.024Z,17.03
2018-03-24T22:47:04.392Z,16.50
2018-03-24T22:52:06.463Z,16.80
2018-03-24T22:57:07.786Z,17.13
2018-03-24T23:02:09.895Z,28.50
2018-03-24T23:07:12.036Z,17.83
2018-03-24T23:12:13.411Z,15.90
2018-03-24T23:17:14.747Z,17.90
2018-03-24T23:22:16.084Z,17.57
2018-03-24T23:27:17.459Z,16.53
2018-03-24T23:32:19.570Z,18.20
2018-03-24T23:37:21.656Z,17.73
2018-03-24T23:42:23.037Z,18.23
2018-03-24T23:47:24.358Z,17.07
2018-03-24T23:52:26.484Z,19.63
2018-03-24T23:57:27.804Z,16.73
